Time;durP1;ratioP1;P1;durP2;ratioP2;P2;SDS_P1;SDS_P2;PMS_P1;PMS_P2;Temp;Humidity;BMP_temperature;BMP_pressure;BME280_temperature;BME280_humidity;BME280_pressure;Samples;Min_cycle;Max_cycle;Signal;HPM_P1;HPM_P2
2021/09/22 00:01:50;;;;;;;;;;;12.80;99.90;;;;;;5055693;28;19935;-85
2021/09/22 00:04:16;;;;;;;;;;;12.80;99.90;;;;;;5055383;28;19931;-85
2021/09/22 00:06:45;;;;;;;;;;;12.80;99.90;;;;;;5055510;28;19935;-85
2021/09/22 00:09:12;;;;;;;;;;;12.80;99.90;;;;;;5055217;28;19924;-86
2021/09/22 00:11:49;;;;;;;;;;;12.80;99.90;;;;;;5055221;28;19928;-85
2021/09/22 00:14:17;;;;;;;;;;;12.80;99.90;;;;;;5055058;28;20259;-85
2021/09/22 00:16:45;;;;;;;;;;;12.80;99.90;;;;;;5055075;28;19931;-85
2021/09/22 00:19:13;;;;;;;;;;;12.80;99.90;;;;;;5055075;28;19935;-85
2021/09/22 00:21:42;;;;;;;;;;;12.80;99.90;;;;;;5055041;28;19931;-85
2021/09/22 00:24:11;;;;;;;;;;;12.80;99.90;;;;;;5055308;28;19924;-85
2021/09/22 00:26:40;;;;;;;;;;;12.80;99.90;;;;;;5055090;28;19935;-85
2021/09/22 00:29:08;;;;;;;;;;;12.70;99.90;;;;;;5054876;28;19925;-85
2021/09/22 00:31:36;;;;;;;;;;;12.70;99.90;;;;;;5055148;28;20019;-85
2021/09/22 00:34:06;;;;;;;;;;;12.70;99.90;;;;;;5054857;28;20331;-84
2021/09/22 00:36:33;;;;;;;;;;;12.70;99.90;;;;;;5054813;28;19998;-85
2021/09/22 00:39:00;;;;;;;;;;;12.70;99.90;;;;;;5053674;28;19925;-85
2021/09/22 00:41:28;;;;;;;;;;;12.70;99.90;;;;;;5054327;28;19931;-85
2021/09/22 00:43:55;;;;;;;;;;;12.70;99.90;;;;;;5057196;28;20029;-85
2021/09/22 00:46:22;;;;;;;;;;;12.60;99.90;;;;;;5059214;28;19925;-84
2021/09/22 00:48:48;;;;;;;;;;;12.60;99.90;;;;;;5058772;28;19931;-85
2021/09/22 00:51:15;;;;;;;;;;;12.60;99.90;;;;;;5059100;28;19924;-85
2021/09/22 00:53:42;;;;;;;;;;;12.60;99.90;;;;;;5058923;28;19924;-85
2021/09/22 00:56:09;;;;;;;;;;;12.60;99.90;;;;;;5058748;28;19935;-85
2021/09/22 00:58:37;;;;;;;;;;;12.60;99.90;;;;;;5058701;28;20345;-85
2021/09/22 01:01:04;;;;;;;;;;;12.60;99.90;;;;;;5058415;28;20264;-85
2021/09/22 01:03:31;;;;;;;;;;;12.60;99.90;;;;;;5058548;28;20249;-85
2021/09/22 01:05:58;;;;;;;;;;;12.60;99.90;;;;;;5058563;28;19928;-85
2021/09/22 01:08:25;;;;;;;;;;;12.60;99.90;;;;;;5058765;28;20102;-85
2021/09/22 01:10:52;;;;;;;;;;;12.60;99.90;;;;;;5058703;28;20376;-85
2021/09/22 01:13:19;;;;;;;;;;;12.60;99.90;;;;;;5058496;28;19931;-85
2021/09/22 01:15:47;;;;;;;;;;;12.60;99.90;;;;;;5058666;28;19928;-85
2021/09/22 01:18:16;;;;;;;;;;;12.60;99.90;;;;;;5058901;28;19935;-85
2021/09/22 01:20:43;;;;;;;;;;;12.60;99.90;;;;;;5058296;28;19925;-85
2021/09/22 01:23:11;;;;;;;;;;;12.60;99.90;;;;;;5058171;28;19953;-85
2021/09/22 01:25:39;;;;;;;;;;;12.50;99.90;;;;;;5058318;28;19956;-85
2021/09/22 01:28:06;;;;;;;;;;;12.50;99.90;;;;;;5058287;28;19950;-85
2021/09/22 01:30:33;;;;;;;;;;;12.50;99.90;;;;;;5058551;28;19935;-85
2021/09/22 01:33:01;;;;;;;;;;;12.50;99.90;;;;;;5058024;28;19935;-85
2021/09/22 01:35:28;;;;;;;;;;;12.60;99.90;;;;;;5058099;28;19931;-86
2021/09/22 01:37:54;;;;;;;;;;;12.60;99.90;;;;;;5058220;28;19925;-86
2021/09/22 01:40:23;;;;;;;;;;;12.60;99.90;;;;;;5058017;28;19925;-85
2021/09/22 01:42:50;;;;;;;;;;;12.60;99.90;;;;;;5057895;28;19935;-86
2021/09/22 01:45:16;;;;;;;;;;;12.60;99.90;;;;;;5057856;28;19928;-85
2021/09/22 01:47:43;;;;;;;;;;;12.60;99.90;;;;;;5057971;28;19924;-85
2021/09/22 01:50:11;;;;;;;;;;;12.60;99.90;;;;;;5057948;28;19935;-85
2021/09/22 01:52:38;;;;;;;;;;;12.60;99.90;;;;;;5057804;28;19925;-86
2021/09/22 01:55:05;;;;;;;;;;;12.60;99.90;;;;;;5057086;28;19924;-85
2021/09/22 01:57:34;;;;;;;;;;;12.60;99.90;;;;;;5057703;28;19946;-85
2021/09/22 02:00:01;;;;;;;;;;;12.50;99.90;;;;;;5057537;28;19931;-85
2021/09/22 02:02:28;;;;;;;;;;;12.50;99.90;;;;;;5057534;28;20256;-85
2021/09/22 02:04:55;;;;;;;;;;;12.50;99.90;;;;;;5057621;28;20007;-85
2021/09/22 02:07:22;;;;;;;;;;;12.50;99.90;;;;;;5057554;28;19935;-85
2021/09/22 02:09:49;;;;;;;;;;;12.50;99.90;;;;;;5057329;28;19935;-86
2021/09/22 02:12:16;;;;;;;;;;;12.50;99.90;;;;;;5057397;28;19933;-85
2021/09/22 02:14:44;;;;;;;;;;;12.50;99.90;;;;;;5057171;28;19935;-85
2021/09/22 02:17:11;;;;;;;;;;;12.50;99.90;;;;;;5057315;28;19943;-85
2021/09/22 02:19:38;;;;;;;;;;;12.40;99.90;;;;;;5057231;28;19925;-85
2021/09/22 02:22:05;;;;;;;;;;;12.40;99.90;;;;;;5057312;28;19925;-85
2021/09/22 02:24:32;;;;;;;;;;;12.40;99.90;;;;;;5057278;28;19932;-86
2021/09/22 02:26:59;;;;;;;;;;;12.40;99.90;;;;;;5057136;28;19972;-85
2021/09/22 02:29:26;;;;;;;;;;;12.40;99.90;;;;;;5057003;28;20341;-85
2021/09/22 02:31:54;;;;;;;;;;;12.40;99.90;;;;;;5056970;28;19925;-85
2021/09/22 02:34:21;;;;;;;;;;;12.30;99.90;;;;;;5056806;28;19925;-85
2021/09/22 02:36:48;;;;;;;;;;;12.30;99.90;;;;;;5057014;28;19924;-85
2021/09/22 02:39:14;;;;;;;;;;;12.30;99.90;;;;;;5056940;28;20264;-85
2021/09/22 02:41:41;;;;;;;;;;;12.20;99.90;;;;;;5056749;28;19947;-85
2021/09/22 02:44:08;;;;;;;;;;;12.20;99.90;;;;;;5057157;28;19935;-85
2021/09/22 02:46:35;;;;;;;;;;;12.20;99.90;;;;;;5056673;28;19932;-85
2021/09/22 02:49:03;;;;;;;;;;;12.10;99.90;;;;;;5056850;28;19925;-85
2021/09/22 02:51:30;;;;;;;;;;;12.10;99.90;;;;;;5056977;28;19924;-85
2021/09/22 02:53:57;;;;;;;;;;;12.10;99.90;;;;;;5056483;28;19938;-85
2021/09/22 02:56:24;;;;;;;;;;;12.10;99.90;;;;;;5056340;28;19925;-85
2021/09/22 02:58:51;;;;;;;;;;;12.10;99.90;;;;;;5056714;28;19925;-82
2021/09/22 03:01:18;;;;;;;;;;;12.10;99.90;;;;;;5056359;28;20386;-85
2021/09/22 03:03:45;;;;;;;;;;;12.10;99.90;;;;;;5056499;28;20028;-85
2021/09/22 03:06:13;;;;;;;;;;;12.10;99.90;;;;;;5055666;28;19925;-85
2021/09/22 03:08:40;;;;;;;;;;;12.10;99.90;;;;;;5056638;28;19925;-85
2021/09/22 03:11:11;;;;;;;;;;;12.10;99.90;;;;;;5056012;28;20417;-84
2021/09/22 03:13:39;;;;;;;;;;;12.00;99.90;;;;;;5056391;28;19978;-85
2021/09/22 03:16:08;;;;;;;;;;;12.00;99.90;;;;;;5056069;28;19925;-85
2021/09/22 03:18:36;;;;;;;;;;;12.00;99.90;;;;;;5056107;28;19935;-87
2021/09/22 03:21:04;;;;;;;;;;;12.00;99.90;;;;;;5056141;28;19925;-87
2021/09/22 03:23:34;;;;;;;;;;;11.90;99.90;;;;;;5056039;28;19933;-87
2021/09/22 03:26:02;;;;;;;;;;;11.80;99.90;;;;;;5056413;28;19925;-86
2021/09/22 03:28:29;;;;;;;;;;;11.80;99.90;;;;;;5055838;28;19932;-87
2021/09/22 03:30:57;;;;;;;;;;;11.80;99.90;;;;;;5055800;28;19935;-86
2021/09/22 03:33:25;;;;;;;;;;;11.70;99.90;;;;;;5055850;28;19931;-86
2021/09/22 03:35:52;;;;;;;;;;;11.70;99.90;;;;;;5055610;28;19947;-87
2021/09/22 03:38:19;;;;;;;;;;;11.70;99.90;;;;;;5055531;28;19925;-87
2021/09/22 03:40:47;;;;;;;;;;;11.60;99.90;;;;;;5055471;28;19935;-87
2021/09/22 03:43:14;;;;;;;;;;;11.60;99.90;;;;;;5055683;28;20023;-87
2021/09/22 03:45:41;;;;;;;;;;;11.60;99.90;;;;;;5055769;28;20341;-87
2021/09/22 03:48:07;;;;;;;;;;;11.50;99.90;;;;;;5055670;28;19928;-87
2021/09/22 03:50:34;;;;;;;;;;;11.50;99.90;;;;;;5055462;28;19935;-87
2021/09/22 03:53:01;;;;;;;;;;;11.40;99.90;;;;;;5055667;28;19935;-87
2021/09/22 03:55:28;;;;;;;;;;;11.40;99.90;;;;;;5055349;28;19935;-87
2021/09/22 03:57:56;;;;;;;;;;;11.40;99.90;;;;;;5055314;28;19924;-87
2021/09/22 04:00:23;;;;;;;;;;;11.40;99.90;;;;;;5055145;28;19935;-86
2021/09/22 04:02:50;;;;;;;;;;;11.30;99.90;;;;;;5055307;28;19924;-87
2021/09/22 04:05:17;;;;;;;;;;;11.30;99.90;;;;;;5055207;28;19929;-86
2021/09/22 04:07:44;;;;;;;;;;;11.30;99.90;;;;;;5055186;28;19931;-86
2021/09/22 04:10:11;;;;;;;;;;;11.30;99.90;;;;;;5055320;28;19925;-86
2021/09/22 04:12:38;;;;;;;;;;;11.20;99.90;;;;;;5055113;28;20023;-87
2021/09/22 04:15:07;;;;;;;;;;;11.20;99.90;;;;;;5055168;28;20383;-87
2021/09/22 04:17:33;;;;;;;;;;;11.20;99.90;;;;;;5054934;28;20024;-87
2021/09/22 04:20:00;;;;;;;;;;;11.20;99.90;;;;;;5055256;28;19935;-87
2021/09/22 04:22:27;;;;;;;;;;;11.20;99.90;;;;;;5054970;28;20341;-87
2021/09/22 04:24:54;;;;;;;;;;;11.20;99.90;;;;;;5055032;28;20334;-86
2021/09/22 04:27:21;;;;;;;;;;;11.10;99.90;;;;;;5055134;28;20264;-86
2021/09/22 04:29:48;;;;;;;;;;;11.10;99.90;;;;;;5055100;28;20018;-87
2021/09/22 04:32:16;;;;;;;;;;;11.10;99.90;;;;;;5054906;28;19935;-86
2021/09/22 04:34:43;;;;;;;;;;;11.10;99.90;;;;;;5054819;28;19925;-87
2021/09/22 04:37:10;;;;;;;;;;;11.10;99.90;;;;;;5055362;28;19964;-86
2021/09/22 04:39:37;;;;;;;;;;;11.00;99.90;;;;;;5055028;28;19939;-86
2021/09/22 04:42:04;;;;;;;;;;;11.10;99.90;;;;;;5054811;28;20019;-86
2021/09/22 04:44:31;;;;;;;;;;;11.00;99.90;;;;;;5054812;28;19931;-86
2021/09/22 04:46:57;;;;;;;;;;;11.00;99.90;;;;;;5054856;28;19935;-86
2021/09/22 04:49:26;;;;;;;;;;;11.00;99.90;;;;;;5054740;28;19925;-86
2021/09/22 04:51:53;;;;;;;;;;;11.00;99.90;;;;;;5054983;28;19935;-86
2021/09/22 04:54:19;;;;;;;;;;;10.90;99.90;;;;;;5054917;28;19925;-87
2021/09/22 04:56:46;;;;;;;;;;;10.90;99.90;;;;;;5054699;28;19924;-86
2021/09/22 04:59:13;;;;;;;;;;;10.90;99.90;;;;;;5055055;28;20267;-86
2021/09/22 05:01:40;;;;;;;;;;;10.90;99.90;;;;;;5054712;28;20260;-86
2021/09/22 05:04:07;;;;;;;;;;;10.90;99.90;;;;;;5054638;28;19928;-86
2021/09/22 05:06:35;;;;;;;;;;;10.90;99.90;;;;;;5054986;28;20353;-86
2021/09/22 05:09:02;;;;;;;;;;;10.90;99.90;;;;;;5054553;28;19925;-86
2021/09/22 05:11:29;;;;;;;;;;;10.90;99.90;;;;;;5054525;28;19925;-86
2021/09/22 05:13:56;;;;;;;;;;;10.90;99.90;;;;;;5054874;28;19924;-86
2021/09/22 05:16:23;;;;;;;;;;;10.80;99.90;;;;;;5054609;28;19925;-86
2021/09/22 05:18:50;;;;;;;;;;;10.90;99.90;;;;;;5054441;28;19929;-86
2021/09/22 05:21:17;;;;;;;;;;;10.80;99.90;;;;;;5054719;28;19951;-86
2021/09/22 05:23:45;;;;;;;;;;;10.80;99.90;;;;;;5054889;28;19924;-84
2021/09/22 05:26:12;;;;;;;;;;;10.80;99.90;;;;;;5054479;28;19925;-86
2021/09/22 05:28:39;;;;;;;;;;;10.80;99.90;;;;;;5054783;28;19932;-86
2021/09/22 05:31:06;;;;;;;;;;;10.80;99.90;;;;;;5058073;28;19925;-87
2021/09/22 05:33:32;;;;;;;;;;;10.70;99.90;;;;;;5057993;28;19935;-86
2021/09/22 05:35:59;;;;;;;;;;;10.70;99.90;;;;;;5057928;28;19925;-86
2021/09/22 05:38:26;;;;;;;;;;;10.70;99.90;;;;;;5058181;28;20336;-86
2021/09/22 05:40:54;;;;;;;;;;;10.70;99.90;;;;;;5058101;28;20264;-86
2021/09/22 05:43:21;;;;;;;;;;;10.70;99.90;;;;;;5058006;28;20015;-86
2021/09/22 05:45:52;;;;;;;;;;;10.70;99.90;;;;;;5058064;28;19929;-86
2021/09/22 05:48:20;;;;;;;;;;;10.70;99.90;;;;;;5058037;28;20253;-86
2021/09/22 05:50:49;;;;;;;;;;;10.70;99.90;;;;;;5058015;28;19925;-86
2021/09/22 05:53:17;;;;;;;;;;;10.70;99.90;;;;;;5057870;28;20280;-86
2021/09/22 05:55:45;;;;;;;;;;;10.70;99.90;;;;;;5057502;28;19925;-86
2021/09/22 05:58:16;;;;;;;;;;;10.70;99.90;;;;;;5057478;28;19924;-86
2021/09/22 06:00:44;;;;;;;;;;;10.70;99.90;;;;;;5057438;28;19925;-86
2021/09/22 06:03:12;;;;;;;;;;;10.70;99.90;;;;;;5057717;28;19933;-85
2021/09/22 06:05:39;;;;;;;;;;;10.70;99.90;;;;;;5057414;28;19933;-86
2021/09/22 06:08:07;;;;;;;;;;;10.70;99.90;;;;;;5057539;28;19925;-86
2021/09/22 06:10:34;;;;;;;;;;;10.70;99.90;;;;;;5057276;28;20376;-86
2021/09/22 06:13:00;;;;;;;;;;;10.80;99.90;;;;;;5056985;28;20248;-86
2021/09/22 06:15:29;;;;;;;;;;;10.80;99.90;;;;;;5056740;28;19947;-85
2021/09/22 06:17:56;;;;;;;;;;;10.80;99.90;;;;;;5057470;28;19925;-87
2021/09/22 06:20:22;;;;;;;;;;;10.90;99.90;;;;;;5057333;28;19924;-87
2021/09/22 06:22:49;;;;;;;;;;;10.90;99.90;;;;;;5057156;28;19939;-86
2021/09/22 06:25:16;;;;;;;;;;;10.90;99.90;;;;;;5057115;28;19925;-86
2021/09/22 06:27:43;;;;;;;;;;;11.00;99.90;;;;;;5057082;28;19925;-86
2021/09/22 06:30:10;;;;;;;;;;;11.00;99.90;;;;;;5057076;28;20370;-87
2021/09/22 06:32:39;;;;;;;;;;;11.10;99.90;;;;;;5057165;28;19925;-86
2021/09/22 06:35:06;;;;;;;;;;;11.10;99.90;;;;;;5056754;28;20031;-86
2021/09/22 06:37:33;;;;;;;;;;;11.20;99.90;;;;;;5056905;28;19925;-86
2021/09/22 06:40:00;;;;;;;;;;;11.30;99.90;;;;;;5056978;28;19925;-86
2021/09/22 06:42:27;;;;;;;;;;;11.30;99.90;;;;;;5057019;28;19925;-86
2021/09/22 06:44:53;;;;;;;;;;;11.40;99.90;;;;;;5056763;28;19925;-86
2021/09/22 06:47:20;;;;;;;;;;;11.50;99.90;;;;;;5056918;28;19925;-87
2021/09/22 06:49:49;;;;;;;;;;;11.50;99.90;;;;;;5056636;28;19935;-86
2021/09/22 06:52:15;;;;;;;;;;;11.30;99.90;;;;;;5056595;28;19931;-87
2021/09/22 06:54:42;;;;;;;;;;;11.60;99.90;;;;;;5056426;28;20023;-86
2021/09/22 06:57:09;;;;;;;;;;;11.70;99.90;;;;;;5056375;28;19932;-86
2021/09/22 06:59:36;;;;;;;;;;;11.70;99.90;;;;;;5056154;28;20396;-86
2021/09/22 07:02:03;;;;;;;;;;;11.80;99.90;;;;;;5056684;28;19925;-86
2021/09/22 07:04:30;;;;;;;;;;;11.80;99.90;;;;;;5056579;28;19925;-86
2021/09/22 07:06:58;;;;;;;;;;;11.90;99.90;;;;;;5056466;28;19935;-86
2021/09/22 07:09:25;;;;;;;;;;;12.00;99.90;;;;;;5056401;28;20241;-86
2021/09/22 07:11:52;;;;;;;;;;;12.00;99.90;;;;;;5056706;28;20027;-87
2021/09/22 07:14:19;;;;;;;;;;;12.10;99.90;;;;;;5056346;28;19935;-86
2021/09/22 07:16:45;;;;;;;;;;;12.10;99.90;;;;;;5056312;28;19924;-86
2021/09/22 07:19:12;;;;;;;;;;;12.10;99.90;;;;;;5055996;28;19932;-86
2021/09/22 07:21:39;;;;;;;;;;;12.20;99.90;;;;;;5056208;28;19932;-87
2021/09/22 07:24:08;;;;;;;;;;;12.20;99.90;;;;;;5055963;28;19933;-86
2021/09/22 07:26:34;;;;;;;;;;;12.30;99.90;;;;;;5056165;28;19935;-87
2021/09/22 07:29:01;;;;;;;;;;;12.40;99.90;;;;;;5055945;28;19935;-87
2021/09/22 07:31:28;;;;;;;;;;;12.40;99.90;;;;;;5055879;28;19925;-87
2021/09/22 07:33:55;;;;;;;;;;;12.40;99.90;;;;;;5055818;28;20260;-87
2021/09/22 07:36:23;;;;;;;;;;;12.40;99.90;;;;;;5055651;28;19946;-86
2021/09/22 07:38:51;;;;;;;;;;;12.50;99.90;;;;;;5055245;28;20264;-87
2021/09/22 07:41:20;;;;;;;;;;;12.50;99.90;;;;;;5055931;28;19935;-87
2021/09/22 07:43:46;;;;;;;;;;;12.60;99.90;;;;;;5055823;28;20023;-86
2021/09/22 07:46:13;;;;;;;;;;;12.60;99.90;;;;;;5055740;28;19925;-88
2021/09/22 07:48:40;;;;;;;;;;;12.70;99.90;;;;;;5055585;28;19935;-87
2021/09/22 07:51:07;;;;;;;;;;;12.80;99.90;;;;;;5055403;28;20268;-85
2021/09/22 07:53:34;;;;;;;;;;;13.00;99.90;;;;;;5055191;28;19925;-85
2021/09/22 07:56:01;;;;;;;;;;;13.00;99.90;;;;;;5055460;28;19935;-85
2021/09/22 07:58:29;;;;;;;;;;;13.10;99.90;;;;;;5055535;28;19931;-85
2021/09/22 08:00:56;;;;;;;;;;;13.10;99.90;;;;;;5055234;28;19925;-84
2021/09/22 08:03:23;;;;;;;;;;;13.20;99.90;;;;;;5055198;28;20031;-85
2021/09/22 08:05:50;;;;;;;;;;;13.30;99.90;;;;;;5055223;28;19939;-85
2021/09/22 08:08:16;;;;;;;;;;;13.40;99.90;;;;;;5055505;28;20015;-85
2021/09/22 08:10:44;;;;;;;;;;;13.40;99.90;;;;;;5055634;28;19931;-85
2021/09/22 08:13:11;;;;;;;;;;;13.40;99.90;;;;;;5055269;28;19925;-85
2021/09/22 08:15:40;;;;;;;;;;;13.50;99.90;;;;;;5055176;28;19924;-85
2021/09/22 08:18:07;;;;;;;;;;;13.50;99.90;;;;;;5055592;28;19935;-85
2021/09/22 08:20:34;;;;;;;;;;;13.70;99.90;;;;;;5055298;28;19924;-85
2021/09/22 08:23:00;;;;;;;;;;;13.80;99.90;;;;;;5055026;28;20305;-86
2021/09/22 08:25:27;;;;;;;;;;;14.00;99.90;;;;;;5055146;28;19925;-88
2021/09/22 08:27:54;;;;;;;;;;;14.10;99.90;;;;;;5055146;28;19931;-88
2021/09/22 08:30:21;;;;;;;;;;;14.20;99.90;;;;;;5055208;28;19935;-88
2021/09/22 08:32:50;;;;;;;;;;;14.30;99.90;;;;;;5054913;28;20319;-88
2021/09/22 08:35:17;;;;;;;;;;;14.30;99.90;;;;;;5055224;28;19925;-88
2021/09/22 08:37:44;;;;;;;;;;;14.30;99.90;;;;;;5054862;28;20023;-88
2021/09/22 08:40:11;;;;;;;;;;;14.30;99.90;;;;;;5055192;28;20023;-89
2021/09/22 08:42:38;;;;;;;;;;;14.30;99.90;;;;;;5054941;28;19924;-88
2021/09/22 08:45:05;;;;;;;;;;;14.30;99.90;;;;;;5055036;28;19935;-88
2021/09/22 08:47:32;;;;;;;;;;;14.30;99.90;;;;;;5054857;28;20416;-88
2021/09/22 08:50:00;;;;;;;;;;;14.20;99.90;;;;;;5054938;28;19935;-88
2021/09/22 08:52:27;;;;;;;;;;;14.20;99.90;;;;;;5054793;28;19931;-88
2021/09/22 08:54:54;;;;;;;;;;;14.20;99.90;;;;;;5054973;28;20360;-88
2021/09/22 08:57:21;;;;;;;;;;;14.20;99.90;;;;;;5054728;28;19924;-88
2021/09/22 08:59:48;;;;;;;;;;;14.30;99.90;;;;;;5054818;28;19925;-88
2021/09/22 09:02:19;;;;;;;;;;;14.30;99.90;;;;;;5055049;28;19925;-87
2021/09/22 09:04:49;;;;;;;;;;;14.30;99.90;;;;;;5056599;28;19925;-87
2021/09/22 09:07:20;;;;;;;;;;;14.30;99.90;;;;;;5058726;28;19925;-88
2021/09/22 09:09:50;;;;;;;;;;;14.30;99.90;;;;;;5058733;28;19925;-87
2021/09/22 09:12:19;;;;;;;;;;;14.30;99.90;;;;;;5058487;28;19976;-88
2021/09/22 09:14:53;;;;;;;;;;;14.40;99.90;;;;;;5058410;28;19924;-88
2021/09/22 09:17:37;;;;;;;;;;;14.40;99.90;;;;;;5057694;28;19975;-87
2021/09/22 09:20:16;;;;;;;;;;;14.40;99.90;;;;;;5058531;28;19932;-87
2021/09/22 09:22:54;;;;;;;;;;;14.30;99.90;;;;;;5058405;28;20019;-88
2021/09/22 09:25:23;;;;;;;;;;;14.20;99.90;;;;;;5058251;28;19925;-87
2021/09/22 09:27:51;;;;;;;;;;;14.20;99.90;;;;;;5058141;28;19935;-87
2021/09/22 09:30:20;;;;;;;;;;;14.20;99.90;;;;;;5058638;28;19935;-88
2021/09/22 09:32:48;;;;;;;;;;;14.20;99.90;;;;;;5058204;28;19925;-86
2021/09/22 09:35:17;;;;;;;;;;;14.20;99.90;;;;;;5058394;28;19925;-86
2021/09/22 09:37:44;;;;;;;;;;;14.20;99.90;;;;;;5057961;28;19924;-86
2021/09/22 09:40:26;;;;;;;;;;;14.10;99.90;;;;;;5057830;28;19924;-86
2021/09/22 09:42:55;;;;;;;;;;;14.20;99.90;;;;;;5057979;28;19935;-86
2021/09/22 09:45:23;;;;;;;;;;;14.20;99.90;;;;;;5058097;28;19935;-87
2021/09/22 09:48:07;;;;;;;;;;;14.20;99.90;;;;;;5058016;28;19924;-86
2021/09/22 09:50:37;;;;;;;;;;;14.20;99.90;;;;;;5058302;28;20015;-87
2021/09/22 09:53:05;;;;;;;;;;;14.30;99.90;;;;;;5057884;28;20007;-88
2021/09/22 09:55:35;;;;;;;;;;;14.20;99.90;;;;;;5058145;28;19931;-89
2021/09/22 09:58:03;;;;;;;;;;;14.30;99.90;;;;;;5057809;28;19925;-88
2021/09/22 10:00:49;;;;;;;;;;;14.30;99.90;;;;;;5057408;28;19925;-88
2021/09/22 10:03:25;;;;;;;;;;;14.30;99.90;;;;;;5057183;28;19924;-88
2021/09/22 10:05:57;;;;;;;;;;;14.30;99.90;;;;;;5057754;28;19924;-88
2021/09/22 10:08:28;;;;;;;;;;;14.40;99.90;;;;;;5057486;28;19925;-88
2021/09/22 10:11:03;;;;;;;;;;;14.40;99.90;;;;;;5057504;28;19968;-88
2021/09/22 10:13:31;;;;;;;;;;;14.40;99.90;;;;;;5057467;28;19979;-88
2021/09/22 10:15:59;;;;;;;;;;;14.50;99.90;;;;;;5056844;28;19929;-88
2021/09/22 10:18:28;;;;;;;;;;;14.60;99.90;;;;;;5057262;28;19943;-88
2021/09/22 10:20:56;;;;;;;;;;;14.50;99.90;;;;;;5057501;28;19935;-87
2021/09/22 10:23:27;;;;;;;;;;;14.50;99.90;;;;;;5057520;28;19992;-87
2021/09/22 10:25:57;;;;;;;;;;;14.50;99.90;;;;;;5056800;28;19924;-87
2021/09/22 10:28:42;;;;;;;;;;;14.60;99.90;;;;;;5057008;28;19931;-87
2021/09/22 10:31:14;;;;;;;;;;;14.60;99.90;;;;;;5056975;28;19935;-87
2021/09/22 10:33:44;;;;;;;;;;;14.70;99.90;;;;;;5056947;28;19928;-86
2021/09/22 10:36:15;;;;;;;;;;;14.80;99.90;;;;;;5056786;28;19929;-87
2021/09/22 10:38:46;;;;;;;;;;;14.90;99.90;;;;;;5057088;28;20023;-86
2021/09/22 10:41:25;;;;;;;;;;;15.00;99.90;;;;;;5057029;28;20349;-88
2021/09/22 10:43:54;;;;;;;;;;;15.00;99.90;;;;;;5057306;28;20023;-88
2021/09/22 10:46:22;;;;;;;;;;;15.10;99.90;;;;;;5056987;28;19991;-86
2021/09/22 10:49:01;;;;;;;;;;;15.10;99.90;;;;;;5056666;28;20397;-86
2021/09/22 10:51:30;;;;;;;;;;;15.20;99.90;;;;;;5056905;28;19925;-87
2021/09/22 10:54:09;;;;;;;;;;;15.20;99.90;;;;;;5056628;28;19932;-86
2021/09/22 10:56:48;;;;;;;;;;;15.30;99.90;;;;;;5056642;28;19947;-87
2021/09/22 10:59:29;;;;;;;;;;;15.20;99.90;;;;;;5056103;28;19925;-87
2021/09/22 11:01:58;;;;;;;;;;;15.20;99.90;;;;;;5056300;28;19925;-86
2021/09/22 11:04:26;;;;;;;;;;;15.10;99.90;;;;;;5056563;28;20242;-87
2021/09/22 11:06:57;;;;;;;;;;;15.10;99.90;;;;;;5056340;28;19935;-87
2021/09/22 11:09:32;;;;;;;;;;;15.10;99.90;;;;;;5056361;28;20040;-86
2021/09/22 11:12:15;;;;;;;;;;;15.10;99.90;;;;;;5056122;28;19941;-87
2021/09/22 11:14:44;;;;;;;;;;;15.20;99.90;;;;;;5056535;28;19968;-85
2021/09/22 11:17:13;;;;;;;;;;;15.20;99.90;;;;;;5056289;28;19947;-87
2021/09/22 11:19:45;;;;;;;;;;;15.20;99.90;;;;;;5056502;28;19924;-87
2021/09/22 11:22:16;;;;;;;;;;;15.40;99.90;;;;;;5055950;28;19928;-87
2021/09/22 11:24:43;;;;;;;;;;;15.40;99.90;;;;;;5056381;28;20341;-89
2021/09/22 11:27:13;;;;;;;;;;;15.50;99.90;;;;;;5055500;28;19936;-88
2021/09/22 11:29:44;;;;;;;;;;;15.50;99.90;;;;;;5056270;28;19925;-88
2021/09/22 11:32:26;;;;;;;;;;;15.50;99.90;;;;;;5056014;28;20024;-87
2021/09/22 11:34:55;;;;;;;;;;;15.60;99.90;;;;;;5055845;28;19955;-87
2021/09/22 11:37:27;;;;;;;;;;;15.70;99.90;;;;;;5055721;28;19928;-88
2021/09/22 11:39:56;;;;;;;;;;;15.80;99.90;;;;;;5055706;28;20265;-87
2021/09/22 11:42:26;;;;;;;;;;;15.80;99.90;;;;;;5055807;28;19932;-87
2021/09/22 11:44:57;;;;;;;;;;;16.00;99.90;;;;;;5055592;28;19924;-87
2021/09/22 11:47:25;;;;;;;;;;;16.10;99.90;;;;;;5055539;28;19936;-88
2021/09/22 11:49:56;;;;;;;;;;;16.20;99.90;;;;;;5055852;28;19951;-87
2021/09/22 11:52:27;;;;;;;;;;;16.20;99.90;;;;;;5055722;28;19925;-87
2021/09/22 11:54:56;;;;;;;;;;;16.40;99.90;;;;;;5055455;28;20337;-88
2021/09/22 11:57:31;;;;;;;;;;;16.40;99.90;;;;;;5055468;28;19931;-88
2021/09/22 12:00:05;;;;;;;;;;;16.30;99.90;;;;;;5055074;28;20007;-87
2021/09/22 12:02:33;;;;;;;;;;;16.30;99.90;;;;;;5055301;28;19986;-88
2021/09/22 12:05:00;;;;;;;;;;;16.30;99.90;;;;;;5055430;28;19924;-89
2021/09/22 12:07:34;;;;;;;;;;;16.40;99.90;;;;;;5055022;28;20031;-89
2021/09/22 12:10:07;;;;;;;;;;;16.50;99.90;;;;;;5055424;28;19924;-87
2021/09/22 12:12:38;;;;;;;;;;;16.60;99.90;;;;;;5055152;28;20308;-88
2021/09/22 12:15:06;;;;;;;;;;;16.70;99.90;;;;;;5055721;28;19951;-87
2021/09/22 12:17:35;;;;;;;;;;;16.70;99.90;;;;;;5055356;28;19925;-88
2021/09/22 12:20:03;;;;;;;;;;;16.70;99.90;;;;;;5055284;28;20548;-88
2021/09/22 12:22:32;;;;;;;;;;;16.70;99.90;;;;;;5055833;28;19946;-88
2021/09/22 12:25:00;;;;;;;;;;;16.70;99.90;;;;;;5055083;28;20279;-88
2021/09/22 12:27:28;;;;;;;;;;;16.70;99.90;;;;;;5055328;28;19979;-87
2021/09/22 12:30:03;;;;;;;;;;;16.70;99.90;;;;;;5055298;28;20333;-87
2021/09/22 12:32:32;;;;;;;;;;;16.70;99.90;;;;;;5054972;28;19925;-87
2021/09/22 12:34:59;;;;;;;;;;;16.80;99.90;;;;;;5054904;28;19925;-87
2021/09/22 12:37:26;;;;;;;;;;;16.80;99.90;;;;;;5054943;28;20289;-87
2021/09/22 12:39:54;;;;;;;;;;;16.80;99.90;;;;;;5061216;28;19935;-87
2021/09/22 12:42:22;;;;;;;;;;;16.80;99.90;;;;;;5061616;28;20039;-85
2021/09/22 12:44:57;;;;;;;;;;;16.80;99.90;;;;;;5065100;28;19935;-85
2021/09/22 12:47:34;;;;;;;;;;;16.90;99.90;;;;;;5062686;28;20260;-77
2021/09/22 12:50:09;;;;;;;;;;;16.90;99.90;;;;;;5062205;28;19924;-92
2021/09/22 12:52:37;;;;;;;;;;;16.90;99.90;;;;;;5062007;28;19925;-90
2021/09/22 12:55:32;;;;;;;;;;;17.00;99.90;;;;;;5061847;28;20033;-89
2021/09/22 12:58:01;;;;;;;;;;;17.00;99.90;;;;;;5040344;28;19935;-85
2021/09/22 13:00:35;;;;;;;;;;;16.90;99.90;;;;;;5040151;28;19960;-87
2021/09/22 13:03:14;;;;;;;;;;;16.90;99.90;;;;;;5042582;28;20120;-91
2021/09/22 13:05:43;;;;;;;;;;;16.90;99.90;;;;;;5040571;28;19936;-83
2021/09/22 13:08:11;;;;;;;;;;;16.90;99.90;;;;;;5040127;28;20262;-86
2021/09/22 13:10:54;;;;;;;;;;;17.00;99.90;;;;;;5040050;28;20079;-89
2021/09/22 13:13:22;;;;;;;;;;;17.10;99.90;;;;;;5040343;28;19929;-91
2021/09/22 13:15:52;;;;;;;;;;;17.10;99.90;;;;;;5040485;28;20003;-90
2021/09/22 13:18:23;;;;;;;;;;;17.10;99.90;;;;;;5040546;28;19925;-91
2021/09/22 13:20:51;;;;;;;;;;;17.10;99.90;;;;;;5040807;28;19925;-93
2021/09/22 13:23:22;;;;;;;;;;;17.10;99.90;;;;;;5040439;28;19936;-92
2021/09/22 13:25:51;;;;;;;;;;;17.10;99.90;;;;;;5040511;28;19925;-94
2021/09/22 13:28:19;;;;;;;;;;;17.20;99.90;;;;;;5040496;28;19937;-91
2021/09/22 13:30:47;;;;;;;;;;;17.20;99.90;;;;;;5040646;28;19925;-93
2021/09/22 13:33:16;;;;;;;;;;;17.20;99.90;;;;;;5035081;28;20016;-93
2021/09/22 13:35:44;;;;;;;;;;;17.40;99.90;;;;;;5021977;28;20020;-93
2021/09/22 13:38:11;;;;;;;;;;;17.40;99.90;;;;;;5021754;28;20032;-92
2021/09/22 13:40:38;;;;;;;;;;;17.50;99.90;;;;;;5022175;28;20313;-91
2021/09/22 13:43:05;;;;;;;;;;;17.60;99.90;;;;;;5021823;28;20004;-93
2021/09/22 13:45:31;;;;;;;;;;;17.70;99.90;;;;;;5021903;28;20012;-93
2021/09/22 13:47:58;;;;;;;;;;;17.80;99.90;;;;;;5021643;28;19992;-92
2021/09/22 13:50:25;;;;;;;;;;;17.80;99.90;;;;;;5018876;28;19989;-93
2021/09/22 13:52:54;;;;;;;;;;;16.80;99.90;;;;;;5018856;28;20232;-92
2021/09/22 13:55:21;;;;;;;;;;;17.90;99.90;;;;;;5018853;28;19925;-94
2021/09/22 13:57:47;;;;;;;;;;;17.90;99.90;;;;;;5018765;28;19925;-94
2021/09/22 14:00:15;;;;;;;;;;;19.90;99.90;;;;;;5029490;28;19925;-93
2021/09/22 14:02:42;;;;;;;;;;;17.80;99.90;;;;;;5058782;28;19929;-91
2021/09/22 14:05:09;;;;;;;;;;;17.70;99.90;;;;;;5058589;28;19929;-94
2021/09/22 14:07:36;;;;;;;;;;;17.80;99.90;;;;;;5057877;28;20023;-94
2021/09/22 14:10:06;;;;;;;;;;;17.70;99.90;;;;;;5058460;28;20015;-94
2021/09/22 14:12:34;;;;;;;;;;;17.70;99.90;;;;;;5058232;28;20046;-94
2021/09/22 14:15:02;;;;;;;;;;;17.70;99.90;;;;;;5058811;28;19925;-93
2021/09/22 14:17:30;;;;;;;;;;;17.70;99.90;;;;;;5058291;28;20310;-92
2021/09/22 14:19:59;;;;;;;;;;;17.60;99.90;;;;;;5058378;28;19935;-92
2021/09/22 14:22:27;;;;;;;;;;;17.70;99.90;;;;;;5058646;28;20257;-92
2021/09/22 14:24:54;;;;;;;;;;;17.70;99.90;;;;;;5058968;28;19929;-90